Terminal Aerodrome Forecast
Issued by NWS

Home | Current Version | Previous Version | Text Only | Print | Product List | Glossary On
Versions: 1 2 3 4 5 6 7 8 9 10 11 12 13 14
000
FTUS45 KSLC 252330
TAFSGU
TAF
KSGU 252330Z 2600/2624 28011G18KT P6SM SCT110 SCT200
     FM260200 27010KT P6SM FEW120 SCT200
     FM260500 11007KT P6SM SCT200
     FM261700 25007KT P6SM SCT200
     FM262000 25010G17KT P6SM FEW100 SCT200
      AMD LTD TO CLD VIS AND WIND=

USA.gov is the U.S. government's official web portal to all federal, state and local government web resources and services.